Terminal Aerodrome Forecast
Issued by NWS Portland, ME

Home | Current Version | Previous Version | Text Only | Print | Product List | Glossary On
Versions: 1 2 3 4 5 6 7 8 9 10 11 12 13 14 15 16 17 18 19 20 21 22 23 24 25 26 27 28
000
FTUS41 KGYX 222320
TAFPWM
TAF
KPWM 222320Z 2300/2324 03016G30KT P6SM OVC011
      TEMPO 2300/2304 2SM -RADZ BR OVC004
     FM230400 03017G30KT 3SM -RADZ BR OVC004
     FM231500 03016G28KT 2SM RA BR OVC005=

USA.gov is the U.S. government's official web portal to all federal, state and local government web resources and services.